Garden City Regional Airport
KGCK : now visible

Airfield :











YOU CAN JOIN US ON...

 
LOGIN :

Register | Disclaimer

   EN    FR    IT 

 









Legend :    VFR   Marginal VFR   IFR   Intensive IFR   Very Intensive IFR
Visi :
Ceiling :
>= 8 km
>= 3000ft
5 to 8 km
1000 to 3000 ft
1500m to 5 km
500 to 1000 ft
800 to 1500m
200 to 500 ft
< 800m
< 200 ft
Symbols :   Thunderstorms  Fog  Heavy snow  Heavy precipitations  Wind > 20 kt






- Airport Elevation : 2891 ft
- IATA code : GCK


KGCK - Garden City Regional

CURRENT METAR :
  • 111954Z 36023G32KT 10SM CLR M04/M14 A3056 RMK AO2 PK WND 35037/1921 SLP381 T10441144 $

EXPIRED METARs :
  • 111854Z 01022G32KT 10SM CLR M05/M14 A3057 RMK AO2 PK WND 35034/1843 SLP384 T10501144 $
  • 111754Z 36026G34KT 10SM FEW020 M07/M14 A3058 RMK AO2 PK WND 01037/1657 SLP387 60000 T10671139 11061 21078 50008 $

TAF KGCK
Valid from the 11 at 18:00 until the 12 at 18:00 UTC


111720Z 1118/1218 02027G34KT P6SM BKN015 BKN020
FM112000 36020G30KT P6SM SCT030
FM120000 36008KT P6SM SKC



MET'MAP, your aeronautical weather chart ! - Copyright ORBIFLY December 2007 - Disclaimer

ORBIFLY MET'MAP TEAM :

Programming & Development : Alexandra Zaïnal
Concept & Development : Baudouin d'Aumeries
Co-Development & Prog : Marc-Olivier Méhu
Technical & hardware support : Manuel Goepfert

Contact : metmap@orbifly.com




SOURCES & CREDITS :

   NOAA       Earth
Advisory